sensor_id;sensor_type;location;lat;lon;timestamp;P1;durP1;ratioP1;P2;durP2;ratioP2
38023;SDS011;23834;48.080;11.682;2023-05-10T00:00:50;2.10;;;1.90;;
38023;SDS011;23834;48.080;11.682;2023-05-10T00:03:15;2.00;;;1.90;;
38023;SDS011;23834;48.080;11.682;2023-05-10T00:05:40;1.90;;;1.80;;
38023;SDS011;23834;48.080;11.682;2023-05-10T00:08:06;1.93;;;1.80;;
38023;SDS011;23834;48.080;11.682;2023-05-10T00:10:31;2.00;;;1.90;;
38023;SDS011;23834;48.080;11.682;2023-05-10T00:12:56;1.93;;;1.83;;
38023;SDS011;23834;48.080;11.682;2023-05-10T00:15:21;2.03;;;1.93;;
38023;SDS011;23834;48.080;11.682;2023-05-10T00:17:47;1.90;;;1.80;;
38023;SDS011;23834;48.080;11.682;2023-05-10T00:20:13;1.90;;;1.80;;
38023;SDS011;23834;48.080;11.682;2023-05-10T00:22:38;1.63;;;1.53;;
38023;SDS011;23834;48.080;11.682;2023-05-10T00:25:03;2.43;;;1.90;;
38023;SDS011;23834;48.080;11.682;2023-05-10T00:27:28;1.93;;;1.83;;
38023;SDS011;23834;48.080;11.682;2023-05-10T00:29:54;1.80;;;1.70;;
38023;SDS011;23834;48.080;11.682;2023-05-10T00:32:19;1.80;;;1.70;;
38023;SDS011;23834;48.080;11.682;2023-05-10T00:34:44;2.10;;;1.90;;
38023;SDS011;23834;48.080;11.682;2023-05-10T00:37:09;1.63;;;1.53;;
38023;SDS011;23834;48.080;11.682;2023-05-10T00:39:34;1.87;;;1.77;;
38023;SDS011;23834;48.080;11.682;2023-05-10T00:42:00;2.27;;;2.07;;
38023;SDS011;23834;48.080;11.682;2023-05-10T00:44:25;1.60;;;1.50;;
38023;SDS011;23834;48.080;11.682;2023-05-10T00:46:50;2.07;;;1.50;;
38023;SDS011;23834;48.080;11.682;2023-05-10T00:49:15;1.60;;;1.50;;
38023;SDS011;23834;48.080;11.682;2023-05-10T00:51:41;1.67;;;1.57;;
38023;SDS011;23834;48.080;11.682;2023-05-10T00:54:07;1.90;;;1.80;;
38023;SDS011;23834;48.080;11.682;2023-05-10T00:56:33;1.47;;;1.40;;
38023;SDS011;23834;48.080;11.682;2023-05-10T00:58:58;1.60;;;1.50;;
38023;SDS011;23834;48.080;11.682;2023-05-10T01:01:24;1.73;;;1.63;;
38023;SDS011;23834;48.080;11.682;2023-05-10T01:03:50;1.47;;;1.37;;
38023;SDS011;23834;48.080;11.682;2023-05-10T01:06:15;1.60;;;1.50;;
38023;SDS011;23834;48.080;11.682;2023-05-10T01:08:40;1.53;;;1.43;;
38023;SDS011;23834;48.080;11.682;2023-05-10T01:11:05;1.67;;;1.57;;
38023;SDS011;23834;48.080;11.682;2023-05-10T01:13:37;1.50;;;1.40;;
38023;SDS011;23834;48.080;11.682;2023-05-10T01:16:03;1.53;;;1.43;;
38023;SDS011;23834;48.080;11.682;2023-05-10T01:18:29;1.50;;;1.40;;
38023;SDS011;23834;48.080;11.682;2023-05-10T01:20:59;1.60;;;1.50;;
38023;SDS011;23834;48.080;11.682;2023-05-10T01:26:22;1.13;;;1.13;;
38023;SDS011;23834;48.080;11.682;2023-05-10T01:28:58;1.37;;;1.27;;
38023;SDS011;23834;48.080;11.682;2023-05-10T01:34:02;1.67;;;1.57;;
38023;SDS011;23834;48.080;11.682;2023-05-10T01:36:31;1.50;;;1.40;;
38023;SDS011;23834;48.080;11.682;2023-05-10T01:39:09;1.67;;;1.50;;
38023;SDS011;23834;48.080;11.682;2023-05-10T01:46:41;1.67;;;1.57;;
38023;SDS011;23834;48.080;11.682;2023-05-10T01:49:19;1.23;;;1.23;;
38023;SDS011;23834;48.080;11.682;2023-05-10T01:51:47;1.00;;;1.00;;
38023;SDS011;23834;48.080;11.682;2023-05-10T01:54:13;1.70;;;1.10;;
38023;SDS011;23834;48.080;11.682;2023-05-10T01:56:40;1.30;;;1.20;;
38023;SDS011;23834;48.080;11.682;2023-05-10T01:59:09;1.17;;;1.00;;
38023;SDS011;23834;48.080;11.682;2023-05-10T02:01:36;1.30;;;1.20;;
38023;SDS011;23834;48.080;11.682;2023-05-10T02:04:01;1.10;;;1.10;;
38023;SDS011;23834;48.080;11.682;2023-05-10T02:06:27;1.40;;;1.30;;
38023;SDS011;23834;48.080;11.682;2023-05-10T02:08:53;1.10;;;1.10;;
38023;SDS011;23834;48.080;11.682;2023-05-10T02:11:18;1.20;;;1.10;;
38023;SDS011;23834;48.080;11.682;2023-05-10T02:13:45;1.23;;;1.07;;
38023;SDS011;23834;48.080;11.682;2023-05-10T02:16:12;1.20;;;1.10;;
38023;SDS011;23834;48.080;11.682;2023-05-10T02:18:38;1.17;;;1.17;;
38023;SDS011;23834;48.080;11.682;2023-05-10T02:21:04;1.47;;;1.37;;
38023;SDS011;23834;48.080;11.682;2023-05-10T02:23:29;0.90;;;0.90;;
38023;SDS011;23834;48.080;11.682;2023-05-10T02:25:55;1.03;;;1.03;;
38023;SDS011;23834;48.080;11.682;2023-05-10T02:28:21;1.13;;;1.13;;
38023;SDS011;23834;48.080;11.682;2023-05-10T02:30:47;1.53;;;1.07;;
38023;SDS011;23834;48.080;11.682;2023-05-10T02:33:12;0.90;;;0.90;;
38023;SDS011;23834;48.080;11.682;2023-05-10T02:35:38;1.00;;;1.00;;
38023;SDS011;23834;48.080;11.682;2023-05-10T02:38:04;1.03;;;1.00;;
38023;SDS011;23834;48.080;11.682;2023-05-10T02:40:30;0.90;;;0.90;;
38023;SDS011;23834;48.080;11.682;2023-05-10T02:42:56;1.00;;;1.00;;
38023;SDS011;23834;48.080;11.682;2023-05-10T02:45:23;1.00;;;0.90;;
38023;SDS011;23834;48.080;11.682;2023-05-10T02:47:49;1.17;;;1.03;;
38023;SDS011;23834;48.080;11.682;2023-05-10T02:50:15;1.33;;;1.23;;
38023;SDS011;23834;48.080;11.682;2023-05-10T02:52:47;0.97;;;0.97;;
38023;SDS011;23834;48.080;11.682;2023-05-10T02:55:14;1.03;;;0.93;;
38023;SDS011;23834;48.080;11.682;2023-05-10T02:57:41;1.10;;;1.00;;
38023;SDS011;23834;48.080;11.682;2023-05-10T03:00:08;0.90;;;0.90;;
38023;SDS011;23834;48.080;11.682;2023-05-10T03:02:33;0.90;;;0.83;;
38023;SDS011;23834;48.080;11.682;2023-05-10T03:04:58;0.97;;;0.97;;
38023;SDS011;23834;48.080;11.682;2023-05-10T03:07:23;0.90;;;0.90;;
38023;SDS011;23834;48.080;11.682;2023-05-10T03:09:49;1.10;;;1.00;;
38023;SDS011;23834;48.080;11.682;2023-05-10T03:12:27;1.83;;;1.00;;
38023;SDS011;23834;48.080;11.682;2023-05-10T03:14:57;1.07;;;0.90;;
38023;SDS011;23834;48.080;11.682;2023-05-10T03:17:29;0.93;;;0.90;;
38023;SDS011;23834;48.080;11.682;2023-05-10T03:19:55;0.83;;;0.83;;
38023;SDS011;23834;48.080;11.682;2023-05-10T03:25:21;0.90;;;0.90;;
38023;SDS011;23834;48.080;11.682;2023-05-10T03:27:47;0.90;;;0.90;;
38023;SDS011;23834;48.080;11.682;2023-05-10T03:30:13;0.70;;;0.70;;
38023;SDS011;23834;48.080;11.682;2023-05-10T03:32:38;0.83;;;0.83;;
38023;SDS011;23834;48.080;11.682;2023-05-10T03:35:07;0.90;;;0.90;;
38023;SDS011;23834;48.080;11.682;2023-05-10T03:37:33;0.63;;;0.63;;
38023;SDS011;23834;48.080;11.682;2023-05-10T03:39:58;1.03;;;0.87;;
38023;SDS011;23834;48.080;11.682;2023-05-10T03:42:24;0.80;;;0.80;;
38023;SDS011;23834;48.080;11.682;2023-05-10T03:44:49;0.80;;;0.80;;
38023;SDS011;23834;48.080;11.682;2023-05-10T03:47:14;0.90;;;0.90;;
38023;SDS011;23834;48.080;11.682;2023-05-10T03:49:40;0.80;;;0.80;;
38023;SDS011;23834;48.080;11.682;2023-05-10T03:52:05;0.90;;;0.90;;
38023;SDS011;23834;48.080;11.682;2023-05-10T03:54:30;0.80;;;0.80;;
38023;SDS011;23834;48.080;11.682;2023-05-10T03:56:55;0.93;;;0.70;;
38023;SDS011;23834;48.080;11.682;2023-05-10T03:59:21;0.80;;;0.80;;
38023;SDS011;23834;48.080;11.682;2023-05-10T04:01:46;0.80;;;0.60;;
38023;SDS011;23834;48.080;11.682;2023-05-10T04:04:11;1.13;;;0.80;;
38023;SDS011;23834;48.080;11.682;2023-05-10T04:06:37;0.87;;;0.87;;
38023;SDS011;23834;48.080;11.682;2023-05-10T04:09:02;0.73;;;0.73;;
38023;SDS011;23834;48.080;11.682;2023-05-10T04:11:29;0.70;;;0.70;;
38023;SDS011;23834;48.080;11.682;2023-05-10T04:13:54;0.73;;;0.60;;
38023;SDS011;23834;48.080;11.682;2023-05-10T04:16:19;0.80;;;0.80;;
38023;SDS011;23834;48.080;11.682;2023-05-10T04:18:44;0.73;;;0.67;;
38023;SDS011;23834;48.080;11.682;2023-05-10T04:21:13;0.83;;;0.83;;
38023;SDS011;23834;48.080;11.682;2023-05-10T04:23:38;0.77;;;0.77;;
38023;SDS011;23834;48.080;11.682;2023-05-10T04:26:04;0.83;;;0.80;;
38023;SDS011;23834;48.080;11.682;2023-05-10T04:28:29;0.70;;;0.70;;
38023;SDS011;23834;48.080;11.682;2023-05-10T04:31:01;0.70;;;0.70;;
38023;SDS011;23834;48.080;11.682;2023-05-10T04:33:27;0.60;;;0.60;;
38023;SDS011;23834;48.080;11.682;2023-05-10T04:35:52;0.80;;;0.80;;
38023;SDS011;23834;48.080;11.682;2023-05-10T04:38:17;0.60;;;0.60;;
38023;SDS011;23834;48.080;11.682;2023-05-10T04:40:42;0.67;;;0.67;;
38023;SDS011;23834;48.080;11.682;2023-05-10T04:43:08;0.50;;;0.43;;
38023;SDS011;23834;48.080;11.682;2023-05-10T04:45:33;0.60;;;0.57;;
38023;SDS011;23834;48.080;11.682;2023-05-10T04:47:58;0.63;;;0.60;;
38023;SDS011;23834;48.080;11.682;2023-05-10T04:50:23;1.20;;;0.60;;
38023;SDS011;23834;48.080;11.682;2023-05-10T04:52:48;0.60;;;0.60;;
38023;SDS011;23834;48.080;11.682;2023-05-10T04:55:13;0.67;;;0.50;;
38023;SDS011;23834;48.080;11.682;2023-05-10T04:57:39;0.60;;;0.60;;
38023;SDS011;23834;48.080;11.682;2023-05-10T05:00:04;0.70;;;0.60;;
38023;SDS011;23834;48.080;11.682;2023-05-10T05:02:30;0.60;;;0.60;;
38023;SDS011;23834;48.080;11.682;2023-05-10T05:04:55;0.50;;;0.50;;
38023;SDS011;23834;48.080;11.682;2023-05-10T05:07:22;0.50;;;0.50;;
38023;SDS011;23834;48.080;11.682;2023-05-10T05:09:47;0.70;;;0.70;;
38023;SDS011;23834;48.080;11.682;2023-05-10T05:12:13;0.60;;;0.60;;
38023;SDS011;23834;48.080;11.682;2023-05-10T05:14:39;0.60;;;0.60;;
38023;SDS011;23834;48.080;11.682;2023-05-10T05:17:04;0.80;;;0.80;;
38023;SDS011;23834;48.080;11.682;2023-05-10T05:19:30;0.80;;;0.77;;
38023;SDS011;23834;48.080;11.682;2023-05-10T05:21:55;0.50;;;0.40;;
38023;SDS011;23834;48.080;11.682;2023-05-10T05:24:21;0.60;;;0.60;;
38023;SDS011;23834;48.080;11.682;2023-05-10T05:26:46;0.50;;;0.50;;
38023;SDS011;23834;48.080;11.682;2023-05-10T05:29:12;0.57;;;0.57;;
38023;SDS011;23834;48.080;11.682;2023-05-10T05:31:37;0.50;;;0.50;;
38023;SDS011;23834;48.080;11.682;2023-05-10T05:34:02;0.60;;;0.60;;
38023;SDS011;23834;48.080;11.682;2023-05-10T05:36:27;0.70;;;0.70;;
38023;SDS011;23834;48.080;11.682;2023-05-10T05:38:52;0.50;;;0.40;;
38023;SDS011;23834;48.080;11.682;2023-05-10T05:41:18;0.93;;;0.50;;
38023;SDS011;23834;48.080;11.682;2023-05-10T05:43:43;0.60;;;0.60;;
38023;SDS011;23834;48.080;11.682;2023-05-10T05:46:08;0.40;;;0.40;;
38023;SDS011;23834;48.080;11.682;2023-05-10T05:48:33;0.50;;;0.50;;
38023;SDS011;23834;48.080;11.682;2023-05-10T05:50:58;0.53;;;0.50;;
38023;SDS011;23834;48.080;11.682;2023-05-10T05:53:24;0.60;;;0.60;;
38023;SDS011;23834;48.080;11.682;2023-05-10T05:55:56;0.67;;;0.50;;
38023;SDS011;23834;48.080;11.682;2023-05-10T05:58:22;1.53;;;0.57;;
38023;SDS011;23834;48.080;11.682;2023-05-10T06:00:47;0.47;;;0.47;;
38023;SDS011;23834;48.080;11.682;2023-05-10T06:03:13;0.70;;;0.60;;
38023;SDS011;23834;48.080;11.682;2023-05-10T06:05:38;0.60;;;0.50;;
38023;SDS011;23834;48.080;11.682;2023-05-10T06:08:03;0.53;;;0.53;;
38023;SDS011;23834;48.080;11.682;2023-05-10T06:10:28;0.70;;;0.60;;
38023;SDS011;23834;48.080;11.682;2023-05-10T06:12:54;0.70;;;0.50;;
38023;SDS011;23834;48.080;11.682;2023-05-10T06:15:19;0.70;;;0.60;;
38023;SDS011;23834;48.080;11.682;2023-05-10T06:17:44;0.70;;;0.40;;
38023;SDS011;23834;48.080;11.682;2023-05-10T06:20:10;0.43;;;0.40;;
38023;SDS011;23834;48.080;11.682;2023-05-10T06:22:35;0.50;;;0.50;;
38023;SDS011;23834;48.080;11.682;2023-05-10T06:25:01;1.10;;;0.50;;
38023;SDS011;23834;48.080;11.682;2023-05-10T06:27:27;1.43;;;0.40;;
38023;SDS011;23834;48.080;11.682;2023-05-10T06:29:52;0.80;;;0.50;;
38023;SDS011;23834;48.080;11.682;2023-05-10T06:32:17;0.43;;;0.40;;
38023;SDS011;23834;48.080;11.682;2023-05-10T06:34:42;0.70;;;0.50;;
38023;SDS011;23834;48.080;11.682;2023-05-10T06:37:08;0.60;;;0.40;;
38023;SDS011;23834;48.080;11.682;2023-05-10T06:39:33;0.70;;;0.50;;
38023;SDS011;23834;48.080;11.682;2023-05-10T06:41:59;0.60;;;0.50;;
38023;SDS011;23834;48.080;11.682;2023-05-10T06:44:24;0.50;;;0.43;;
38023;SDS011;23834;48.080;11.682;2023-05-10T06:46:49;0.57;;;0.57;;
38023;SDS011;23834;48.080;11.682;2023-05-10T06:49:14;0.50;;;0.40;;
38023;SDS011;23834;48.080;11.682;2023-05-10T06:51:40;0.50;;;0.40;;
38023;SDS011;23834;48.080;11.682;2023-05-10T06:54:05;0.80;;;0.57;;
38023;SDS011;23834;48.080;11.682;2023-05-10T06:56:31;0.60;;;0.60;;
38023;SDS011;23834;48.080;11.682;2023-05-10T06:58:56;0.57;;;0.50;;
38023;SDS011;23834;48.080;11.682;2023-05-10T07:01:21;0.50;;;0.50;;
38023;SDS011;23834;48.080;11.682;2023-05-10T07:03:47;0.57;;;0.57;;
38023;SDS011;23834;48.080;11.682;2023-05-10T07:06:12;0.70;;;0.50;;
38023;SDS011;23834;48.080;11.682;2023-05-10T07:08:37;0.50;;;0.50;;
38023;SDS011;23834;48.080;11.682;2023-05-10T07:11:03;0.93;;;0.50;;
38023;SDS011;23834;48.080;11.682;2023-05-10T07:13:29;0.50;;;0.50;;
38023;SDS011;23834;48.080;11.682;2023-05-10T07:15:55;0.50;;;0.50;;
38023;SDS011;23834;48.080;11.682;2023-05-10T07:18:20;0.50;;;0.40;;
38023;SDS011;23834;48.080;11.682;2023-05-10T07:20:45;0.93;;;0.40;;
38023;SDS011;23834;48.080;11.682;2023-05-10T07:23:10;0.50;;;0.40;;
38023;SDS011;23834;48.080;11.682;2023-05-10T07:25:36;0.40;;;0.40;;
38023;SDS011;23834;48.080;11.682;2023-05-10T07:28:01;0.63;;;0.60;;
38023;SDS011;23834;48.080;11.682;2023-05-10T07:30:26;2.07;;;0.60;;
38023;SDS011;23834;48.080;11.682;2023-05-10T07:32:52;0.50;;;0.40;;
38023;SDS011;23834;48.080;11.682;2023-05-10T07:35:17;0.50;;;0.50;;
38023;SDS011;23834;48.080;11.682;2023-05-10T07:37:42;0.70;;;0.50;;
38023;SDS011;23834;48.080;11.682;2023-05-10T07:40:07;0.40;;;0.33;;
38023;SDS011;23834;48.080;11.682;2023-05-10T07:42:33;0.60;;;0.60;;
38023;SDS011;23834;48.080;11.682;2023-05-10T07:44:58;0.40;;;0.40;;
38023;SDS011;23834;48.080;11.682;2023-05-10T07:47:23;0.50;;;0.40;;
38023;SDS011;23834;48.080;11.682;2023-05-10T07:49:48;0.50;;;0.47;;
38023;SDS011;23834;48.080;11.682;2023-05-10T07:52:14;0.60;;;0.40;;
38023;SDS011;23834;48.080;11.682;2023-05-10T07:54:39;0.53;;;0.43;;
38023;SDS011;23834;48.080;11.682;2023-05-10T07:57:04;0.50;;;0.40;;
38023;SDS011;23834;48.080;11.682;2023-05-10T07:59:29;0.40;;;0.40;;
38023;SDS011;23834;48.080;11.682;2023-05-10T08:01:54;0.43;;;0.43;;
38023;SDS011;23834;48.080;11.682;2023-05-10T08:04:21;0.50;;;0.50;;
38023;SDS011;23834;48.080;11.682;2023-05-10T08:06:46;0.50;;;0.40;;
38023;SDS011;23834;48.080;11.682;2023-05-10T08:09:11;0.50;;;0.50;;
38023;SDS011;23834;48.080;11.682;2023-05-10T08:11:36;0.60;;;0.60;;
38023;SDS011;23834;48.080;11.682;2023-05-10T08:14:02;0.57;;;0.50;;
38023;SDS011;23834;48.080;11.682;2023-05-10T08:16:27;0.73;;;0.43;;
38023;SDS011;23834;48.080;11.682;2023-05-10T08:18:52;0.77;;;0.53;;
38023;SDS011;23834;48.080;11.682;2023-05-10T08:21:20;0.50;;;0.40;;
38023;SDS011;23834;48.080;11.682;2023-05-10T08:23:45;0.40;;;0.40;;
38023;SDS011;23834;48.080;11.682;2023-05-10T08:26:10;0.80;;;0.40;;
38023;SDS011;23834;48.080;11.682;2023-05-10T08:28:36;0.50;;;0.40;;
38023;SDS011;23834;48.080;11.682;2023-05-10T08:31:01;1.03;;;0.60;;
38023;SDS011;23834;48.080;11.682;2023-05-10T08:33:26;0.53;;;0.40;;
38023;SDS011;23834;48.080;11.682;2023-05-10T08:35:51;0.50;;;0.40;;
38023;SDS011;23834;48.080;11.682;2023-05-10T08:38:17;0.87;;;0.50;;
38023;SDS011;23834;48.080;11.682;2023-05-10T08:40:43;1.00;;;0.37;;
38023;SDS011;23834;48.080;11.682;2023-05-10T08:43:09;0.63;;;0.63;;
38023;SDS011;23834;48.080;11.682;2023-05-10T08:45:36;0.50;;;0.50;;
38023;SDS011;23834;48.080;11.682;2023-05-10T08:48:02;2.00;;;0.40;;
38023;SDS011;23834;48.080;11.682;2023-05-10T08:50:29;0.50;;;0.50;;
38023;SDS011;23834;48.080;11.682;2023-05-10T08:52:55;0.50;;;0.40;;
38023;SDS011;23834;48.080;11.682;2023-05-10T08:55:23;0.50;;;0.50;;
38023;SDS011;23834;48.080;11.682;2023-05-10T08:57:48;0.50;;;0.40;;
38023;SDS011;23834;48.080;11.682;2023-05-10T09:00:14;0.70;;;0.40;;
38023;SDS011;23834;48.080;11.682;2023-05-10T09:02:39;0.53;;;0.40;;
38023;SDS011;23834;48.080;11.682;2023-05-10T09:05:05;1.13;;;0.50;;
38023;SDS011;23834;48.080;11.682;2023-05-10T09:07:30;0.50;;;0.40;;
38023;SDS011;23834;48.080;11.682;2023-05-10T09:09:56;0.70;;;0.50;;
38023;SDS011;23834;48.080;11.682;2023-05-10T09:12:22;1.07;;;0.40;;
38023;SDS011;23834;48.080;11.682;2023-05-10T09:14:47;0.60;;;0.43;;
38023;SDS011;23834;48.080;11.682;2023-05-10T09:17:13;0.50;;;0.50;;
38023;SDS011;23834;48.080;11.682;2023-05-10T09:19:38;0.50;;;0.40;;
38023;SDS011;23834;48.080;11.682;2023-05-10T09:22:03;0.50;;;0.40;;
38023;SDS011;23834;48.080;11.682;2023-05-10T09:24:29;0.43;;;0.40;;
38023;SDS011;23834;48.080;11.682;2023-05-10T09:26:54;0.60;;;0.40;;
38023;SDS011;23834;48.080;11.682;2023-05-10T09:29:21;0.70;;;0.50;;
38023;SDS011;23834;48.080;11.682;2023-05-10T09:31:50;0.40;;;0.30;;
38023;SDS011;23834;48.080;11.682;2023-05-10T09:34:19;0.40;;;0.40;;
38023;SDS011;23834;48.080;11.682;2023-05-10T09:36:59;0.50;;;0.50;;
38023;SDS011;23834;48.080;11.682;2023-05-10T09:39:38;0.40;;;0.40;;
38023;SDS011;23834;48.080;11.682;2023-05-10T09:42:04;0.43;;;0.40;;
38023;SDS011;23834;48.080;11.682;2023-05-10T09:44:30;0.50;;;0.30;;
38023;SDS011;23834;48.080;11.682;2023-05-10T09:46:55;0.50;;;0.40;;
38023;SDS011;23834;48.080;11.682;2023-05-10T09:49:21;0.50;;;0.43;;
38023;SDS011;23834;48.080;11.682;2023-05-10T09:51:46;0.40;;;0.33;;
38023;SDS011;23834;48.080;11.682;2023-05-10T09:54:15;0.70;;;0.50;;
38023;SDS011;23834;48.080;11.682;2023-05-10T09:56:40;0.40;;;0.40;;
38023;SDS011;23834;48.080;11.682;2023-05-10T09:59:07;0.50;;;0.50;;
38023;SDS011;23834;48.080;11.682;2023-05-10T10:01:33;0.80;;;0.40;;
38023;SDS011;23834;48.080;11.682;2023-05-10T10:03:58;0.53;;;0.53;;
38023;SDS011;23834;48.080;11.682;2023-05-10T10:06:23;0.40;;;0.40;;
38023;SDS011;23834;48.080;11.682;2023-05-10T10:08:49;1.83;;;0.40;;
38023;SDS011;23834;48.080;11.682;2023-05-10T10:11:14;0.60;;;0.40;;
38023;SDS011;23834;48.080;11.682;2023-05-10T10:13:40;0.60;;;0.50;;
38023;SDS011;23834;48.080;11.682;2023-05-10T10:16:05;0.40;;;0.30;;
38023;SDS011;23834;48.080;11.682;2023-05-10T10:18:31;0.60;;;0.30;;
38023;SDS011;23834;48.080;11.682;2023-05-10T10:20:56;0.50;;;0.30;;
38023;SDS011;23834;48.080;11.682;2023-05-10T10:23:21;0.40;;;0.40;;
38023;SDS011;23834;48.080;11.682;2023-05-10T10:25:47;0.70;;;0.50;;
38023;SDS011;23834;48.080;11.682;2023-05-10T10:28:27;0.50;;;0.40;;
38023;SDS011;23834;48.080;11.682;2023-05-10T10:30:59;0.40;;;0.40;;
38023;SDS011;23834;48.080;11.682;2023-05-10T10:35:52;1.10;;;0.50;;
38023;SDS011;23834;48.080;11.682;2023-05-10T10:38:17;0.50;;;0.50;;
38023;SDS011;23834;48.080;11.682;2023-05-10T10:40:42;0.40;;;0.40;;
38023;SDS011;23834;48.080;11.682;2023-05-10T10:48:32;0.40;;;0.30;;
38023;SDS011;23834;48.080;11.682;2023-05-10T10:50:57;0.40;;;0.33;;
38023;SDS011;23834;48.080;11.682;2023-05-10T10:53:25;0.50;;;0.50;;
38023;SDS011;23834;48.080;11.682;2023-05-10T10:55:51;0.40;;;0.30;;
38023;SDS011;23834;48.080;11.682;2023-05-10T10:58:30;0.50;;;0.50;;
38023;SDS011;23834;48.080;11.682;2023-05-10T11:01:11;0.50;;;0.40;;
38023;SDS011;23834;48.080;11.682;2023-05-10T11:03:37;0.40;;;0.40;;
38023;SDS011;23834;48.080;11.682;2023-05-10T11:06:02;0.70;;;0.40;;
38023;SDS011;23834;48.080;11.682;2023-05-10T11:08:28;0.50;;;0.40;;
38023;SDS011;23834;48.080;11.682;2023-05-10T11:13:28;0.50;;;0.50;;
38023;SDS011;23834;48.080;11.682;2023-05-10T11:15:54;0.60;;;0.43;;
38023;SDS011;23834;48.080;11.682;2023-05-10T11:18:20;0.80;;;0.57;;
38023;SDS011;23834;48.080;11.682;2023-05-10T11:21:19;0.57;;;0.50;;
38023;SDS011;23834;48.080;11.682;2023-05-10T11:26:12;0.80;;;0.60;;
38023;SDS011;23834;48.080;11.682;2023-05-10T11:28:44;0.63;;;0.63;;
38023;SDS011;23834;48.080;11.682;2023-05-10T11:31:09;0.60;;;0.60;;
38023;SDS011;23834;48.080;11.682;2023-05-10T11:33:44;0.53;;;0.40;;
38023;SDS011;23834;48.080;11.682;2023-05-10T11:38:54;0.60;;;0.50;;
38023;SDS011;23834;48.080;11.682;2023-05-10T11:41:20;0.73;;;0.63;;
38023;SDS011;23834;48.080;11.682;2023-05-10T11:43:51;0.60;;;0.60;;
38023;SDS011;23834;48.080;11.682;2023-05-10T11:46:18;0.80;;;0.70;;
38023;SDS011;23834;48.080;11.682;2023-05-10T11:48:45;1.03;;;0.60;;
38023;SDS011;23834;48.080;11.682;2023-05-10T11:51:10;1.23;;;0.70;;
38023;SDS011;23834;48.080;11.682;2023-05-10T11:53:36;0.80;;;0.70;;
38023;SDS011;23834;48.080;11.682;2023-05-10T11:56:10;0.63;;;0.63;;
38023;SDS011;23834;48.080;11.682;2023-05-10T11:58:36;1.23;;;0.70;;
38023;SDS011;23834;48.080;11.682;2023-05-10T12:01:02;2.00;;;0.60;;
38023;SDS011;23834;48.080;11.682;2023-05-10T12:03:28;1.43;;;0.70;;
38023;SDS011;23834;48.080;11.682;2023-05-10T12:05:54;0.57;;;0.53;;
38023;SDS011;23834;48.080;11.682;2023-05-10T12:08:20;0.50;;;0.50;;
38023;SDS011;23834;48.080;11.682;2023-05-10T12:10:46;0.67;;;0.60;;
38023;SDS011;23834;48.080;11.682;2023-05-10T12:13:11;1.40;;;0.63;;
38023;SDS011;23834;48.080;11.682;2023-05-10T12:15:38;0.60;;;0.60;;
38023;SDS011;23834;48.080;11.682;2023-05-10T12:18:03;1.60;;;1.20;;
38023;SDS011;23834;48.080;11.682;2023-05-10T12:20:30;0.60;;;0.60;;
38023;SDS011;23834;48.080;11.682;2023-05-10T12:22:57;1.57;;;0.70;;
38023;SDS011;23834;48.080;11.682;2023-05-10T12:25:23;0.57;;;0.53;;
38023;SDS011;23834;48.080;11.682;2023-05-10T12:27:53;0.50;;;0.50;;
38023;SDS011;23834;48.080;11.682;2023-05-10T12:30:23;0.80;;;0.57;;
38023;SDS011;23834;48.080;11.682;2023-05-10T12:32:48;0.60;;;0.60;;
38023;SDS011;23834;48.080;11.682;2023-05-10T12:35:14;0.90;;;0.50;;
38023;SDS011;23834;48.080;11.682;2023-05-10T12:37:41;0.73;;;0.73;;
38023;SDS011;23834;48.080;11.682;2023-05-10T12:40:07;0.70;;;0.70;;
38023;SDS011;23834;48.080;11.682;2023-05-10T12:42:33;1.27;;;0.63;;
38023;SDS011;23834;48.080;11.682;2023-05-10T12:44:58;1.37;;;0.70;;
38023;SDS011;23834;48.080;11.682;2023-05-10T12:47:23;0.73;;;0.73;;
38023;SDS011;23834;48.080;11.682;2023-05-10T12:49:48;0.90;;;0.63;;
38023;SDS011;23834;48.080;11.682;2023-05-10T12:52:14;0.80;;;0.70;;
38023;SDS011;23834;48.080;11.682;2023-05-10T12:54:39;0.83;;;0.70;;
38023;SDS011;23834;48.080;11.682;2023-05-10T12:57:04;0.70;;;0.60;;
38023;SDS011;23834;48.080;11.682;2023-05-10T12:59:30;0.60;;;0.50;;
38023;SDS011;23834;48.080;11.682;2023-05-10T13:01:56;1.50;;;0.73;;
38023;SDS011;23834;48.080;11.682;2023-05-10T13:04:22;0.67;;;0.67;;
38023;SDS011;23834;48.080;11.682;2023-05-10T13:06:47;0.60;;;0.60;;
38023;SDS011;23834;48.080;11.682;2023-05-10T13:09:12;0.70;;;0.70;;
38023;SDS011;23834;48.080;11.682;2023-05-10T13:11:37;0.77;;;0.77;;
38023;SDS011;23834;48.080;11.682;2023-05-10T13:14:03;1.13;;;0.87;;
38023;SDS011;23834;48.080;11.682;2023-05-10T13:16:28;0.60;;;0.60;;
38023;SDS011;23834;48.080;11.682;2023-05-10T13:18:53;0.60;;;0.60;;
38023;SDS011;23834;48.080;11.682;2023-05-10T13:21:19;1.43;;;0.60;;
38023;SDS011;23834;48.080;11.682;2023-05-10T13:23:44;0.70;;;0.70;;
38023;SDS011;23834;48.080;11.682;2023-05-10T13:26:09;0.60;;;0.60;;
38023;SDS011;23834;48.080;11.682;2023-05-10T13:28:35;0.80;;;0.80;;
38023;SDS011;23834;48.080;11.682;2023-05-10T13:31:00;0.80;;;0.80;;
38023;SDS011;23834;48.080;11.682;2023-05-10T13:33:25;1.63;;;0.73;;
38023;SDS011;23834;48.080;11.682;2023-05-10T13:35:51;0.63;;;0.57;;
38023;SDS011;23834;48.080;11.682;2023-05-10T13:38:16;0.60;;;0.60;;
38023;SDS011;23834;48.080;11.682;2023-05-10T13:40:41;0.70;;;0.70;;
38023;SDS011;23834;48.080;11.682;2023-05-10T13:43:06;1.27;;;0.67;;
38023;SDS011;23834;48.080;11.682;2023-05-10T13:45:32;0.90;;;0.80;;
38023;SDS011;23834;48.080;11.682;2023-05-10T13:47:58;2.83;;;0.63;;
38023;SDS011;23834;48.080;11.682;2023-05-10T13:50:23;1.77;;;0.90;;
38023;SDS011;23834;48.080;11.682;2023-05-10T13:52:48;0.97;;;0.80;;
38023;SDS011;23834;48.080;11.682;2023-05-10T13:55:13;0.60;;;0.60;;
38023;SDS011;23834;48.080;11.682;2023-05-10T13:57:38;1.20;;;0.60;;
38023;SDS011;23834;48.080;11.682;2023-05-10T14:00:04;1.37;;;0.70;;
38023;SDS011;23834;48.080;11.682;2023-05-10T14:02:29;0.77;;;0.73;;
38023;SDS011;23834;48.080;11.682;2023-05-10T14:04:55;0.70;;;0.70;;
38023;SDS011;23834;48.080;11.682;2023-05-10T14:07:20;0.97;;;0.70;;
38023;SDS011;23834;48.080;11.682;2023-05-10T14:09:45;0.90;;;0.90;;
38023;SDS011;23834;48.080;11.682;2023-05-10T14:12:10;0.87;;;0.63;;
38023;SDS011;23834;48.080;11.682;2023-05-10T14:14:36;0.80;;;0.70;;
38023;SDS011;23834;48.080;11.682;2023-05-10T14:17:01;1.67;;;0.70;;
38023;SDS011;23834;48.080;11.682;2023-05-10T14:19:26;1.00;;;0.80;;
38023;SDS011;23834;48.080;11.682;2023-05-10T14:21:52;0.70;;;0.70;;
38023;SDS011;23834;48.080;11.682;2023-05-10T14:24:17;1.47;;;0.70;;
38023;SDS011;23834;48.080;11.682;2023-05-10T14:26:43;0.70;;;0.70;;
38023;SDS011;23834;48.080;11.682;2023-05-10T14:29:08;1.00;;;0.70;;
38023;SDS011;23834;48.080;11.682;2023-05-10T14:31:33;0.73;;;0.70;;
38023;SDS011;23834;48.080;11.682;2023-05-10T14:33:58;0.83;;;0.70;;
38023;SDS011;23834;48.080;11.682;2023-05-10T14:36:24;0.97;;;0.80;;
38023;SDS011;23834;48.080;11.682;2023-05-10T14:38:49;2.43;;;0.60;;
38023;SDS011;23834;48.080;11.682;2023-05-10T14:41:15;0.80;;;0.80;;
38023;SDS011;23834;48.080;11.682;2023-05-10T14:43:42;0.70;;;0.60;;
38023;SDS011;23834;48.080;11.682;2023-05-10T14:46:07;0.80;;;0.70;;
38023;SDS011;23834;48.080;11.682;2023-05-10T14:48:33;0.70;;;0.50;;
38023;SDS011;23834;48.080;11.682;2023-05-10T14:50:58;1.27;;;0.70;;
38023;SDS011;23834;48.080;11.682;2023-05-10T14:53:23;1.07;;;0.60;;
38023;SDS011;23834;48.080;11.682;2023-05-10T14:55:49;0.60;;;0.60;;